Time;durP1;ratioP1;P1;durP2;ratioP2;P2;SDS_P1;SDS_P2;PMS_P1;PMS_P2;Temp;Humidity;BMP_temperature;BMP_pressure;BME280_temperature;BME280_humidity;BME280_pressure;Samples;Min_cycle;Max_cycle;Signal;HPM_P1;HPM_P2
2023/07/11 00:01:24;;;;;;;10.53;6.97;;;19.80;99.90;;;;;;5114395;28;20310;-78
2023/07/11 00:03:53;;;;;;;9.20;6.57;;;19.80;99.90;;;;;;5114152;28;20289;-77
2023/07/11 00:06:21;;;;;;;8.30;6.37;;;19.80;99.90;;;;;;5113386;28;20202;-76
2023/07/11 00:08:49;;;;;;;8.30;6.50;;;19.70;99.90;;;;;;5093742;28;20207;-77
2023/07/11 00:11:18;;;;;;;8.10;6.50;;;19.70;99.90;;;;;;5094083;28;20264;-77
2023/07/11 00:13:49;;;;;;;8.43;6.67;;;19.70;99.90;;;;;;5093575;28;20206;-75
2023/07/11 00:16:19;;;;;;;9.47;6.90;;;19.60;99.90;;;;;;5102262;28;20206;-75
2023/07/11 00:18:48;;;;;;;8.20;6.30;;;19.60;99.90;;;;;;5114060;28;20566;-79
2023/07/11 00:21:16;;;;;;;8.10;6.63;;;19.60;99.90;;;;;;5113829;28;20683;-76
2023/07/11 00:23:44;;;;;;;8.90;6.50;;;19.50;99.90;;;;;;5113507;28;20228;-77
2023/07/11 00:26:12;;;;;;;6.93;6.20;;;19.40;99.90;;;;;;5100855;28;20203;-79
2023/07/11 00:28:40;;;;;;;8.40;6.37;;;19.40;99.90;;;;;;5093418;28;20685;-79
2023/07/11 00:31:09;;;;;;;7.83;6.47;;;19.40;99.90;;;;;;5093528;28;20264;-77
2023/07/11 00:33:38;;;;;;;11.80;7.23;;;19.40;99.90;;;;;;5093307;28;20248;-73
2023/07/11 00:36:06;;;;;;;7.83;6.50;;;19.30;99.90;;;;;;5111007;28;20297;-78
2023/07/11 00:38:35;;;;;;;7.67;6.20;;;19.20;99.90;;;;;;5113759;28;20206;-76
2023/07/11 00:41:06;;;;;;;7.73;6.77;;;19.20;99.90;;;;;;5113263;28;20692;-75
2023/07/11 00:43:35;;;;;;;8.90;6.40;;;19.20;99.90;;;;;;5111965;28;20190;-78
2023/07/11 00:46:07;;;;;;;8.77;6.57;;;19.10;99.90;;;;;;5092782;28;20272;-79
2023/07/11 00:48:40;;;;;;;10.17;6.80;;;19.10;99.90;;;;;;5093199;28;20195;-77
2023/07/11 00:51:11;;;;;;;8.77;6.83;;;19.10;99.90;;;;;;5093278;28;20242;-77
2023/07/11 00:53:42;;;;;;;7.03;5.83;;;19.10;99.90;;;;;;5102238;28;20208;-76
2023/07/11 00:56:13;;;;;;;7.93;6.57;;;19.10;99.90;;;;;;5113717;28;20230;-76
2023/07/11 00:58:43;;;;;;;8.50;6.70;;;19.00;99.90;;;;;;5113451;28;20206;-77
2023/07/11 01:01:12;;;;;;;8.20;6.37;;;19.00;99.90;;;;;;5112572;28;20226;-75
2023/07/11 01:03:42;;;;;;;7.53;6.70;;;19.00;99.90;;;;;;5094685;28;20683;-79
2023/07/11 01:06:12;;;;;;;8.53;6.27;;;18.90;99.90;;;;;;5093633;28;20301;-77
2023/07/11 01:08:41;;;;;;;11.23;6.80;;;18.90;99.90;;;;;;5093232;28;20335;-79
2023/07/11 01:11:09;;;;;;;8.63;6.87;;;18.90;99.90;;;;;;5092985;28;20207;-77
2023/07/11 01:13:37;;;;;;;7.87;6.63;;;18.80;99.90;;;;;;5092331;28;20701;-79
2023/07/11 01:16:05;;;;;;;7.17;6.47;;;18.80;99.90;;;;;;5113248;28;20214;-79
2023/07/11 01:18:34;;;;;;;9.33;6.73;;;18.80;99.90;;;;;;5118548;28;20244;-78
2023/07/11 01:21:05;;;;;;;8.03;6.77;;;18.70;99.90;;;;;;5121813;28;20256;-77
2023/07/11 01:23:35;;;;;;;7.37;6.60;;;18.70;99.90;;;;;;5111612;28;20207;-75
2023/07/11 01:26:06;;;;;;;8.73;6.60;;;18.70;99.90;;;;;;5106923;28;20198;-77
2023/07/11 01:28:35;;;;;;;7.60;6.67;;;18.60;99.90;;;;;;5107854;28;20206;-75
2023/07/11 01:31:03;;;;;;;9.77;7.30;;;18.60;99.90;;;;;;5105899;28;20245;-74
2023/07/11 01:33:33;;;;;;;10.27;7.10;;;18.60;99.90;;;;;;5105359;28;20229;-75
2023/07/11 01:36:02;;;;;;;8.27;6.90;;;18.50;99.90;;;;;;5107886;28;20221;-78
2023/07/11 01:38:31;;;;;;;8.60;7.30;;;18.50;99.90;;;;;;5105722;28;20206;-77
2023/07/11 01:41:00;;;;;;;8.60;7.57;;;18.40;99.90;;;;;;5104077;28;20405;-77
2023/07/11 01:43:29;;;;;;;12.80;8.17;;;18.40;99.90;;;;;;5102301;28;20665;-77
2023/07/11 01:45:57;;;;;;;9.70;7.70;;;18.40;99.90;;;;;;5103699;28;20237;-74
2023/07/11 01:48:25;;;;;;;9.30;7.43;;;18.50;99.90;;;;;;5106789;28;20203;-75
2023/07/11 01:50:53;;;;;;;10.43;8.10;;;18.50;99.90;;;;;;5103567;28;20226;-76
2023/07/11 01:53:21;;;;;;;9.23;7.53;;;18.40;99.90;;;;;;5101813;28;20203;-76
2023/07/11 01:55:56;;;;;;;9.23;7.47;;;18.40;99.90;;;;;;5102187;28;20239;-76
2023/07/11 01:58:25;;;;;;;10.17;7.43;;;18.30;99.90;;;;;;5093395;28;20241;-75
2023/07/11 02:00:55;;;;;;;8.70;7.23;;;18.30;99.90;;;;;;5103187;28;20225;-75
2023/07/11 02:03:23;;;;;;;9.40;7.00;;;18.30;99.90;;;;;;5109691;28;20742;-74
2023/07/11 02:05:52;;;;;;;9.97;7.57;;;18.20;99.90;;;;;;5107200;28;20206;-75
2023/07/11 02:08:21;;;;;;;9.00;7.50;;;18.20;99.90;;;;;;5121115;28;20205;-77
2023/07/11 02:10:49;;;;;;;10.43;7.90;;;18.20;99.90;;;;;;5116489;28;20236;-75
2023/07/11 02:13:17;;;;;;;9.00;7.30;;;18.10;99.90;;;;;;5110015;28;20268;-74
2023/07/11 02:15:46;;;;;;;9.67;7.70;;;18.10;99.90;;;;;;5110119;28;20280;-76
2023/07/11 02:18:14;;;;;;;9.30;7.93;;;18.10;99.90;;;;;;5112743;28;20207;-75
2023/07/11 02:20:43;;;;;;;11.30;8.10;;;18.00;99.90;;;;;;5100074;28;20241;-76
2023/07/11 02:23:12;;;;;;;9.30;7.73;;;18.00;99.90;;;;;;5099370;28;20211;-77
2023/07/11 02:25:40;;;;;;;9.67;7.87;;;18.00;99.90;;;;;;5099534;28;20293;-78
2023/07/11 02:28:09;;;;;;;8.50;7.60;;;18.00;99.90;;;;;;5103128;28;20222;-76
2023/07/11 02:30:37;;;;;;;10.30;7.47;;;17.90;99.90;;;;;;5118742;28;20260;-76
2023/07/11 02:33:07;;;;;;;10.57;8.53;;;17.90;99.90;;;;;;5119074;28;20207;-77
2023/07/11 02:35:35;;;;;;;12.63;8.53;;;17.90;99.90;;;;;;5122238;28;20210;-77
2023/07/11 02:38:03;;;;;;;11.93;8.30;;;17.90;99.90;;;;;;5113570;28;20211;-75
2023/07/11 02:40:31;;;;;;;9.10;8.00;;;17.90;99.90;;;;;;5103769;28;20207;-75
2023/07/11 02:42:59;;;;;;;8.83;7.90;;;17.90;99.90;;;;;;5096148;28;20264;-75
2023/07/11 02:45:27;;;;;;;9.33;8.10;;;17.80;99.90;;;;;;5099802;28;20233;-75
2023/07/11 02:47:56;;;;;;;9.67;8.20;;;17.80;99.90;;;;;;5095754;28;20256;-78
2023/07/11 02:50:25;;;;;;;9.83;8.00;;;17.70;99.90;;;;;;5097194;28;20210;-76
2023/07/11 02:52:53;;;;;;;10.03;8.03;;;17.70;99.90;;;;;;5096686;28;20203;-76
2023/07/11 02:55:21;;;;;;;11.13;8.33;;;17.70;99.90;;;;;;5096765;28;20261;-75
2023/07/11 02:57:50;;;;;;;10.23;8.50;;;17.70;99.90;;;;;;5104542;28;20247;-75
2023/07/11 03:00:18;;;;;;;10.67;8.50;;;17.60;99.90;;;;;;5104773;28;20288;-77
2023/07/11 03:02:46;;;;;;;9.00;8.10;;;17.60;99.90;;;;;;5114974;28;20233;-77
2023/07/11 03:05:14;;;;;;;10.87;7.73;;;17.60;99.90;;;;;;5106893;28;20246;-76
2023/07/11 03:07:44;;;;;;;9.07;7.87;;;17.60;99.90;;;;;;5108005;28;20630;-80
2023/07/11 03:10:12;;;;;;;8.90;8.00;;;17.50;99.90;;;;;;5095016;28;20199;-75
2023/07/11 03:12:40;;;;;;;11.27;8.53;;;17.40;99.90;;;;;;5094276;28;20191;-80
2023/07/11 03:15:09;;;;;;;9.80;8.50;;;17.40;99.90;;;;;;5094373;28;20730;-75
2023/07/11 03:17:37;;;;;;;10.10;8.47;;;17.40;99.90;;;;;;5094615;28;20225;-75
2023/07/11 03:20:06;;;;;;;10.03;8.70;;;17.40;99.90;;;;;;5094619;28;20207;-79
2023/07/11 03:22:34;;;;;;;10.13;8.80;;;17.40;99.90;;;;;;5094238;28;20214;-78
2023/07/11 03:25:04;;;;;;;9.80;8.13;;;17.40;99.90;;;;;;5094105;28;20256;-79
2023/07/11 03:27:33;;;;;;;10.57;8.60;;;17.40;99.90;;;;;;5094016;28;20203;-81
2023/07/11 03:30:01;;;;;;;10.23;8.53;;;17.40;99.90;;;;;;5096870;28;20207;-77
2023/07/11 03:32:29;;;;;;;9.77;8.73;;;17.40;99.90;;;;;;5104679;28;20275;-79
2023/07/11 03:34:57;;;;;;;10.97;8.30;;;17.40;99.90;;;;;;5104500;28;20688;-77
2023/07/11 03:37:30;;;;;;;9.60;8.47;;;17.40;99.90;;;;;;5104058;28;20191;-76
2023/07/11 03:39:58;;;;;;;10.27;8.67;;;17.30;99.90;;;;;;5100419;28;20682;-76
2023/07/11 03:42:28;;;;;;;11.03;8.87;;;17.30;99.90;;;;;;5095812;28;20489;-79
2023/07/11 03:44:56;;;;;;;10.47;7.83;;;17.30;99.90;;;;;;5094120;28;20207;-80
2023/07/11 03:47:25;;;;;;;9.93;8.20;;;17.30;99.90;;;;;;5093732;28;20272;-78
2023/07/11 03:49:53;;;;;;;9.17;8.07;;;17.30;99.90;;;;;;5094397;28;20207;-78
2023/07/11 03:52:21;;;;;;;10.67;8.33;;;17.30;99.90;;;;;;5093788;28;20225;-76
2023/07/11 03:54:49;;;;;;;11.07;8.80;;;17.30;99.90;;;;;;5094162;28;20271;-74
2023/07/11 03:57:18;;;;;;;9.57;8.40;;;17.30;99.90;;;;;;5094049;28;20202;-79
2023/07/11 03:59:48;;;;;;;9.50;8.10;;;17.30;99.90;;;;;;5094069;28;20207;-76
2023/07/11 04:02:17;;;;;;;10.63;8.13;;;17.30;99.90;;;;;;5093426;28;20227;-79
2023/07/11 04:04:45;;;;;;;11.00;8.53;;;17.40;99.90;;;;;;5096541;28;20555;-77
2023/07/11 04:07:13;;;;;;;9.60;8.10;;;17.40;99.90;;;;;;5101826;28;20239;-78
2023/07/11 04:09:42;;;;;;;9.63;7.67;;;17.40;99.90;;;;;;5101249;28;20322;-78
2023/07/11 04:12:11;;;;;;;9.43;8.27;;;17.50;99.90;;;;;;5101983;28;20272;-76
2023/07/11 04:14:39;;;;;;;10.40;8.03;;;17.50;99.90;;;;;;5109586;28;20625;-79
2023/07/11 04:17:09;;;;;;;10.67;8.40;;;17.50;99.90;;;;;;5093254;28;20207;-76
2023/07/11 04:19:37;;;;;;;9.23;8.27;;;17.50;99.90;;;;;;5093000;28;20239;-79
2023/07/11 04:22:05;;;;;;;10.63;7.87;;;17.60;99.90;;;;;;5093078;28;20284;-77
2023/07/11 04:24:33;;;;;;;9.80;7.83;;;17.60;99.90;;;;;;5094052;28;20215;-76
2023/07/11 04:27:01;;;;;;;10.00;8.13;;;17.70;99.90;;;;;;5095703;28;20256;-75
2023/07/11 04:29:29;;;;;;;10.03;8.53;;;17.70;99.90;;;;;;5113728;28;20214;-79
2023/07/11 04:31:57;;;;;;;9.37;8.33;;;17.70;99.90;;;;;;5112973;28;20218;-76
2023/07/11 04:34:26;;;;;;;10.03;9.00;;;17.80;99.90;;;;;;5113616;28;20237;-78
2023/07/11 04:36:55;;;;;;;8.60;7.70;;;17.80;99.90;;;;;;5112634;28;20567;-74
2023/07/11 04:39:23;;;;;;;10.97;8.60;;;17.80;99.90;;;;;;5113342;28;20206;-79
2023/07/11 04:41:51;;;;;;;11.13;8.10;;;17.90;99.90;;;;;;5112980;28;20202;-75
2023/07/11 04:44:20;;;;;;;9.43;7.97;;;18.00;99.90;;;;;;5105050;28;20207;-78
2023/07/11 04:46:48;;;;;;;12.00;8.43;;;18.10;99.90;;;;;;5091981;28;20559;-78
2023/07/11 04:49:16;;;;;;;10.93;8.27;;;18.10;99.90;;;;;;5091595;28;20198;-75
2023/07/11 04:51:45;;;;;;;10.30;7.90;;;18.20;99.90;;;;;;5092241;28;20203;-73
2023/07/11 04:54:13;;;;;;;10.60;8.30;;;18.30;99.90;;;;;;5099468;28;20198;-75
2023/07/11 04:56:43;;;;;;;10.50;8.07;;;18.40;99.90;;;;;;5097525;28;20227;-78
2023/07/11 04:59:11;;;;;;;9.77;7.63;;;18.50;99.90;;;;;;5091769;28;20207;-75
2023/07/11 05:01:39;;;;;;;14.57;8.90;;;18.60;99.90;;;;;;5093031;28;20236;-78
2023/07/11 05:04:08;;;;;;;12.17;8.10;;;18.70;99.90;;;;;;5092421;28;20223;-76
2023/07/11 05:06:36;;;;;;;10.07;7.83;;;18.80;99.90;;;;;;5093137;28;20210;-75
2023/07/11 05:09:06;;;;;;;9.93;8.27;;;18.90;99.90;;;;;;5092765;28;20233;-74
2023/07/11 05:11:37;;;;;;;8.43;7.30;;;19.00;99.90;;;;;;5092345;28;20226;-76
2023/07/11 05:14:05;;;;;;;11.30;7.30;;;19.00;99.90;;;;;;5092419;28;20215;-75
2023/07/11 05:16:34;;;;;;;9.67;7.40;;;19.10;99.90;;;;;;5093601;28;20674;-79
2023/07/11 05:19:02;;;;;;;8.60;7.60;;;19.20;99.90;;;;;;5092674;28;20637;-75
2023/07/11 05:21:31;;;;;;;9.23;7.47;;;19.30;99.90;;;;;;5092525;28;20256;-77
2023/07/11 05:24:01;;;;;;;9.30;7.40;;;19.40;99.90;;;;;;5092127;28;20314;-75
2023/07/11 05:26:31;;;;;;;8.90;7.30;;;19.60;99.90;;;;;;5092527;28;20187;-77
2023/07/11 05:28:59;;;;;;;8.30;7.40;;;19.70;99.90;;;;;;5092432;28;20238;-77
2023/07/11 05:31:27;;;;;;;11.00;8.13;;;19.80;99.90;;;;;;5093472;28;20215;-75
2023/07/11 05:33:55;;;;;;;11.30;7.10;;;19.90;99.90;;;;;;5103607;28;20202;-75
2023/07/11 05:36:31;;;;;;;9.13;7.40;;;20.00;99.90;;;;;;5112848;28;20214;-74
2023/07/11 05:39:04;;;;;;;12.23;7.87;;;20.10;99.90;;;;;;5112840;28;20205;-76
2023/07/11 05:41:34;;;;;;;7.43;6.67;;;20.20;99.90;;;;;;5109983;28;20198;-76
2023/07/11 05:44:04;;;;;;;7.60;6.90;;;20.40;99.90;;;;;;5091957;28;20692;-78
2023/07/11 05:46:32;;;;;;;9.07;6.93;;;20.50;99.90;;;;;;5092277;28;20211;-73
2023/07/11 05:49:01;;;;;;;8.37;7.00;;;20.70;99.90;;;;;;5093417;28;20207;-76
2023/07/11 05:51:29;;;;;;;8.77;6.97;;;20.90;99.90;;;;;;5092254;28;20623;-75
2023/07/11 05:53:57;;;;;;;8.83;7.90;;;21.20;99.90;;;;;;5093124;28;20210;-74
2023/07/11 05:56:26;;;;;;;9.20;7.30;;;21.40;99.90;;;;;;5093436;28;20333;-75
2023/07/11 05:58:56;;;;;;;10.17;7.57;;;21.80;99.90;;;;;;5092307;28;20301;-74
2023/07/11 06:01:27;;;;;;;8.83;7.03;;;22.30;99.90;;;;;;5092492;28;20191;-74
2023/07/11 06:04:06;;;;;;;9.63;6.87;;;23.20;99.90;;;;;;5092027;28;20235;-75
2023/07/11 06:06:41;;;;;;;10.40;7.30;;;24.30;99.90;;;;;;5095819;28;20206;-76
2023/07/11 06:09:12;;;;;;;10.20;6.80;;;25.30;99.90;;;;;;5096298;28;20249;-77
2023/07/11 06:11:40;;;;;;;13.43;6.93;;;26.30;99.90;;;;;;5096026;28;20210;-77
2023/07/11 06:14:13;;;;;;;10.33;6.30;;;27.00;97.50;;;;;;5095932;28;20290;-75
2023/07/11 06:16:42;;;;;;;10.43;6.55;;;27.60;95.00;;;;;;5095666;28;20229;-77
2023/07/11 06:19:11;;;;;;;8.32;6.60;;;28.10;92.00;;;;;;5096282;28;20582;-77
2023/07/11 06:21:39;;;;;;;8.93;6.82;;;28.60;90.30;;;;;;5096169;28;20210;-77
2023/07/11 06:24:07;;;;;;;8.50;6.30;;;29.00;85.30;;;;;;5095951;28;20268;-76
2023/07/11 06:26:35;;;;;;;9.60;6.85;;;29.30;78.50;;;;;;5095369;28;20256;-77
2023/07/11 06:29:03;;;;;;;8.48;6.05;;;29.60;77.50;;;;;;5095691;28;20669;-77
2023/07/11 06:31:33;;;;;;;7.47;6.03;;;30.20;75.40;;;;;;5095715;28;20237;-76
2023/07/11 06:34:01;;;;;;;7.45;6.07;;;30.00;75.90;;;;;;5098811;28;20225;-77
2023/07/11 06:36:29;;;;;;;8.18;6.10;;;29.80;74.90;;;;;;5116044;28;20214;-77
2023/07/11 06:38:57;;;;;;;12.27;6.65;;;29.80;75.10;;;;;;5128065;28;20206;-77
2023/07/11 06:41:28;;;;;;;9.18;6.50;;;29.70;75.00;;;;;;5128922;28;20210;-78
2023/07/11 06:43:57;;;;;;;7.63;6.30;;;29.70;76.70;;;;;;5099895;28;20261;-79
2023/07/11 06:46:25;;;;;;;7.78;5.78;;;30.00;76.70;;;;;;5095336;28;20217;-77
2023/07/11 06:48:55;;;;;;;7.43;6.43;;;30.40;74.00;;;;;;5095221;28;20289;-77
2023/07/11 06:51:23;;;;;;;7.40;5.75;;;31.00;70.30;;;;;;5095092;28;20214;-79
2023/07/11 06:53:51;;;;;;;8.38;6.32;;;31.30;67.20;;;;;;5094956;28;20579;-78
2023/07/11 06:56:19;;;;;;;8.40;5.70;;;31.10;67.50;;;;;;5095218;28;20223;-77
2023/07/11 06:58:48;;;;;;;8.65;5.15;;;31.00;62.30;;;;;;5097439;28;20665;-78
2023/07/11 07:01:17;;;;;;;9.35;5.30;;;31.00;58.50;;;;;;5114961;28;20210;-78
2023/07/11 07:04:03;;;;;;;5.53;4.80;;;31.70;59.50;;;;;;5115408;28;20246;-77
2023/07/11 07:06:34;;;;;;;6.75;5.40;;;31.80;59.30;;;;;;5114568;28;20248;-78
2023/07/11 07:09:04;;;;;;;6.00;5.18;;;32.60;59.20;;;;;;5095035;28;20218;-77
2023/07/11 07:11:32;;;;;;;8.82;5.55;;;33.10;57.10;;;;;;5104816;28;20545;-79
2023/07/11 07:14:01;;;;;;;7.05;5.20;;;33.60;52.30;;;;;;5113858;28;20215;-79
2023/07/11 07:16:34;;;;;;;8.68;5.15;;;32.60;50.60;;;;;;5094373;28;20582;-78
2023/07/11 07:19:05;;;;;;;5.45;4.80;;;33.00;51.70;;;;;;5094784;28;20211;-80
2023/07/11 07:21:34;;;;;;;9.95;5.03;;;33.70;49.10;;;;;;5094842;28;20218;-78
2023/07/11 07:24:02;;;;;;;7.82;4.65;;;34.30;47.80;;;;;;5093663;28;20285;-78
2023/07/11 07:26:30;;;;;;;7.78;4.95;;;35.20;43.60;;;;;;5094529;28;20313;-80
2023/07/11 07:28:58;;;;;;;7.97;4.68;;;35.50;41.20;;;;;;5094948;28;20599;-79
2023/07/11 07:31:27;;;;;;;9.65;5.20;;;34.70;39.70;;;;;;5094067;28;20268;-78
2023/07/11 07:33:55;;;;;;;7.28;5.03;;;35.20;40.00;;;;;;5094637;28;20234;-79
2023/07/11 07:36:24;;;;;;;5.30;4.43;;;35.90;40.40;;;;;;5094300;28;20211;-79
2023/07/11 07:38:52;;;;;;;6.63;4.88;;;36.50;38.50;;;;;;5094536;28;20283;-78
2023/07/11 07:41:21;;;;;;;10.23;5.22;;;35.80;36.00;;;;;;5093996;28;20709;-78
2023/07/11 07:43:49;;;;;;;7.20;4.60;;;36.30;34.90;;;;;;5093952;28;20261;-78
2023/07/11 07:46:19;;;;;;;6.53;4.82;;;35.90;35.50;;;;;;5093967;28;20665;-78
2023/07/11 07:48:47;;;;;;;7.20;5.10;;;36.10;34.20;;;;;;5094200;28;20301;-80
2023/07/11 07:51:18;;;;;;;7.45;4.60;;;36.40;35.80;;;;;;5093706;28;20210;-79
2023/07/11 07:53:48;;;;;;;9.77;4.57;;;36.60;37.00;;;;;;5093783;28;20195;-79
2023/07/11 07:56:19;;;;;;;6.20;4.57;;;36.70;33.00;;;;;;5093935;28;20231;-80
2023/07/11 07:58:48;;;;;;;7.95;4.78;;;36.60;32.70;;;;;;5093731;28;20206;-79
2023/07/11 08:01:18;;;;;;;10.90;4.78;;;36.60;34.80;;;;;;5093671;28;20211;-79
2023/07/11 08:03:46;;;;;;;6.50;4.47;;;37.20;33.30;;;;;;5093553;28;20222;-78
2023/07/11 08:06:16;;;;;;;6.38;4.65;;;37.10;32.20;;;;;;5093763;28;20210;-80
2023/07/11 08:08:45;;;;;;;5.05;4.13;;;37.40;31.70;;;;;;5093945;28;20562;-79
2023/07/11 08:11:17;;;;;;;4.85;4.05;;;37.60;29.50;;;;;;5093736;28;20202;-79
2023/07/11 08:13:45;;;;;;;6.95;4.45;;;37.30;28.80;;;;;;5093017;28;20252;-81
2023/07/11 08:16:18;;;;;;;7.47;4.82;;;37.30;27.30;;;;;;5093833;28;20210;-79
2023/07/11 08:18:59;;;;;;;6.53;4.45;;;36.90;29.20;;;;;;5093413;28;20637;-79
2023/07/11 08:21:27;;;;;;;5.35;4.20;;;37.30;28.10;;;;;;5093530;28;20690;-79
2023/07/11 08:23:55;;;;;;;6.25;4.88;;;37.70;29.40;;;;;;5092918;28;20256;-81
2023/07/11 08:26:25;;;;;;;8.00;4.50;;;37.20;28.80;;;;;;5093409;28;20206;-79
2023/07/11 08:28:54;;;;;;;5.10;4.30;;;38.00;27.60;;;;;;5093271;28;20256;-81
2023/07/11 08:31:23;;;;;;;8.55;4.35;;;38.20;25.90;;;;;;5092777;28;20728;-80
2023/07/11 08:33:53;;;;;;;5.47;4.22;;;38.20;26.90;;;;;;5113263;28;20643;-79
2023/07/11 08:36:21;;;;;;;6.50;4.45;;;38.30;27.80;;;;;;5113171;28;20686;-80
2023/07/11 08:42:35;;;;;;;5.03;4.40;;;38.30;28.70;;;;;;5092598;28;20655;-79
2023/07/11 08:45:15;;;;;;;6.85;4.55;;;37.90;25.80;;;;;;5092680;28;20276;-80
2023/07/11 08:47:47;;;;;;;4.88;4.38;;;37.50;26.10;;;;;;5075520;28;20312;-81
2023/07/11 08:50:18;;;;;;;5.82;4.38;;;37.70;25.00;;;;;;5092816;28;20211;-78
2023/07/11 08:52:51;;;;;;;6.60;4.53;;;37.90;27.70;;;;;;5092713;28;20214;-79
2023/07/11 08:55:25;;;;;;;6.88;4.65;;;38.40;25.00;;;;;;5092701;28;20226;-79
2023/07/11 08:58:08;;;;;;;6.40;4.30;;;39.10;25.70;;;;;;5108628;28;20206;-81
2023/07/11 09:00:37;;;;;;;8.30;4.68;;;38.40;25.30;;;;;;5113006;28;20689;-79
2023/07/11 09:03:13;;;;;;;5.95;4.50;;;38.80;25.00;;;;;;5112787;28;20630;-79
2023/07/11 09:05:46;;;;;;;7.97;4.95;;;38.50;24.90;;;;;;5110793;28;20232;-79
2023/07/11 09:08:17;;;;;;;5.57;4.55;;;38.40;25.30;;;;;;5092472;28;20191;-79
2023/07/11 09:10:55;;;;;;;10.93;4.70;;;38.00;26.50;;;;;;5092465;28;20203;-80
2023/07/11 09:13:45;;;;;;;9.05;4.57;;;38.50;26.70;;;;;;5075116;28;20202;-79
2023/07/11 09:16:23;;;;;;;5.47;4.15;;;39.30;26.20;;;;;;5092649;28;20294;-79
2023/07/11 09:18:56;;;;;;;9.05;4.85;;;38.60;23.60;;;;;;5092359;28;20688;-79
2023/07/11 09:21:31;;;;;;;4.80;4.05;;;37.40;25.20;;;;;;5092453;28;20203;-79
2023/07/11 09:24:07;;;;;;;6.43;4.32;;;37.30;27.60;;;;;;5091725;28;20214;-79
2023/07/11 09:26:47;;;;;;;6.13;4.45;;;37.50;28.10;;;;;;5075227;28;20210;-79
2023/07/11 09:29:18;;;;;;;8.20;4.72;;;38.00;26.30;;;;;;5092491;28;20203;-79
2023/07/11 09:31:51;;;;;;;6.35;4.43;;;38.80;27.50;;;;;;5091838;28;20664;-79
2023/07/11 09:34:23;;;;;;;5.90;4.47;;;38.80;26.40;;;;;;5092229;28;20236;-80
2023/07/11 09:36:51;;;;;;;6.13;4.70;;;39.60;24.60;;;;;;5092353;28;20293;-80
2023/07/11 09:39:28;;;;;;;4.75;4.22;;;39.20;25.60;;;;;;5091837;28;20211;-79
2023/07/11 09:42:05;;;;;;;5.88;4.30;;;39.40;24.30;;;;;;5091333;28;20206;-81
2023/07/11 09:44:35;;;;;;;6.05;4.45;;;39.40;24.40;;;;;;5092122;28;20218;-78
2023/07/11 09:47:16;;;;;;;8.05;4.47;;;39.20;22.90;;;;;;5092313;28;20206;-78
2023/07/11 09:49:45;;;;;;;6.10;4.40;;;38.60;24.00;;;;;;5092106;28;20199;-79
2023/07/11 09:52:26;;;;;;;6.35;4.57;;;38.00;24.60;;;;;;5091525;28;20733;-78
2023/07/11 09:54:54;;;;;;;6.18;4.45;;;38.30;24.90;;;;;;5091710;28;20240;-79
2023/07/11 09:57:36;;;;;;;9.18;4.38;;;39.10;24.70;;;;;;5091996;28;20211;-80
2023/07/11 10:00:09;;;;;;;7.97;4.50;;;38.30;25.30;;;;;;5092464;28;20211;-79
2023/07/11 10:02:46;;;;;;;4.82;4.18;;;39.60;24.20;;;;;;5091697;28;20683;-80
2023/07/11 10:05:18;;;;;;;5.30;4.80;;;39.50;23.50;;;;;;5091728;28;20695;-79
2023/07/11 10:07:47;;;;;;;7.22;4.50;;;39.70;24.50;;;;;;5091379;28;20202;-80
2023/07/11 10:10:16;;;;;;;7.10;4.70;;;39.80;23.90;;;;;;5091874;28;20687;-79
2023/07/11 10:12:45;;;;;;;7.88;4.63;;;39.70;24.10;;;;;;5091766;28;20214;-80
2023/07/11 10:15:18;;;;;;;8.15;4.78;;;39.00;24.90;;;;;;5092044;28;20221;-79
2023/07/11 10:17:46;;;;;;;6.43;4.30;;;39.30;25.00;;;;;;5091786;28;20207;-79
2023/07/11 10:20:18;;;;;;;7.38;4.60;;;38.70;26.00;;;;;;5091649;28;20466;-80
2023/07/11 10:22:52;;;;;;;6.50;5.10;;;38.90;27.20;;;;;;5091620;28;20207;-80
2023/07/11 10:25:22;;;;;;;5.65;4.53;;;39.10;24.70;;;;;;5091522;28;20207;-78
2023/07/11 10:27:55;;;;;;;7.65;4.80;;;38.90;25.10;;;;;;5091834;28;20264;-78
2023/07/11 10:30:28;;;;;;;6.32;4.70;;;38.50;26.10;;;;;;5091754;28;20233;-79
2023/07/11 10:32:59;;;;;;;6.60;4.82;;;38.10;25.90;;;;;;5091204;28;20220;-77
2023/07/11 10:35:40;;;;;;;5.05;4.55;;;38.80;26.50;;;;;;5102693;28;20194;-78
2023/07/11 10:38:17;;;;;;;6.43;4.82;;;38.50;25.40;;;;;;5111834;28;20658;-82
2023/07/11 10:40:49;;;;;;;6.15;4.93;;;39.40;25.00;;;;;;5094723;28;20570;-78
2023/07/11 10:43:25;;;;;;;7.20;4.72;;;39.30;24.30;;;;;;5110395;28;20214;-79
2023/07/11 10:45:59;;;;;;;5.30;4.63;;;39.60;26.40;;;;;;5111867;28;20778;-79
2023/07/11 10:48:36;;;;;;;6.05;4.85;;;40.70;25.00;;;;;;5111835;28;20220;-78
2023/07/11 10:51:08;;;;;;;7.05;4.95;;;39.60;25.60;;;;;;5112251;28;20210;-79
2023/07/11 10:53:41;;;;;;;6.50;5.30;;;39.00;24.90;;;;;;5096944;28;20199;-78
2023/07/11 10:56:15;;;;;;;6.07;4.82;;;38.30;26.70;;;;;;5094997;28;20222;-80
2023/07/11 10:58:43;;;;;;;7.68;4.93;;;37.70;27.10;;;;;;5095453;28;20258;-79
2023/07/11 11:01:23;;;;;;;8.55;5.07;;;39.00;26.80;;;;;;5095579;28;20213;-79
2023/07/11 11:03:57;;;;;;;7.05;5.13;;;38.80;27.80;;;;;;5094585;28;20195;-80
2023/07/11 11:06:51;;;;;;;9.55;5.00;;;38.40;26.90;;;;;;5094739;28;20695;-80
2023/07/11 11:09:24;;;;;;;10.55;5.55;;;38.20;27.50;;;;;;5094903;28;20191;-79
2023/07/11 11:12:05;;;;;;;6.75;5.03;;;38.80;28.20;;;;;;5094660;28;20288;-80
2023/07/11 11:14:41;;;;;;;8.30;5.35;;;38.90;26.00;;;;;;5095002;28;20207;-78
2023/07/11 11:17:22;;;;;;;7.60;5.20;;;39.20;27.30;;;;;;5094822;28;20202;-79
2023/07/11 11:20:07;;;;;;;8.43;5.55;;;38.60;26.60;;;;;;5107409;28;20563;-78
2023/07/11 11:22:46;;;;;;;7.93;5.38;;;38.40;27.70;;;;;;5097919;28;20210;-78
2023/07/11 11:25:20;;;;;;;6.40;5.07;;;38.30;27.50;;;;;;5114763;28;20200;-78
2023/07/11 11:27:57;;;;;;;9.10;5.35;;;38.20;28.10;;;;;;5101699;28;20211;-78
2023/07/11 11:30:37;;;;;;;8.05;5.00;;;37.70;28.80;;;;;;5094657;28;20256;-77
2023/07/11 11:33:21;;;;;;;7.93;5.28;;;37.80;29.10;;;;;;5094198;28;20206;-77
2023/07/11 11:35:58;;;;;;;10.80;5.57;;;38.00;27.70;;;;;;5094381;28;20260;-77
2023/07/11 11:38:40;;;;;;;7.88;5.07;;;38.10;27.60;;;;;;5094539;28;20256;-76
2023/07/11 11:41:13;;;;;;;11.45;6.10;;;38.00;29.50;;;;;;5101259;28;20551;-77
2023/07/11 11:43:44;;;;;;;7.95;6.10;;;37.60;27.80;;;;;;5105271;28;20225;-77
2023/07/11 11:46:16;;;;;;;7.88;5.53;;;37.20;25.30;;;;;;5116431;28;20564;-77
2023/07/11 11:48:54;;;;;;;8.93;5.88;;;37.30;28.70;;;;;;5124993;28;20202;-76
2023/07/11 11:51:27;;;;;;;8.88;6.03;;;37.20;27.90;;;;;;5122850;28;20283;-77
2023/07/11 11:54:15;;;;;;;6.85;5.72;;;37.40;26.50;;;;;;5108805;28;20217;-76
2023/07/11 11:56:48;;;;;;;10.43;5.60;;;37.40;27.60;;;;;;5107019;28;20283;-77
2023/07/11 11:59:20;;;;;;;9.80;6.05;;;37.00;27.10;;;;;;5099940;28;20660;-76
2023/07/11 12:01:59;;;;;;;11.13;6.00;;;37.00;27.50;;;;;;5117789;28;20252;-75
2023/07/11 12:05:00;;;;;;;7.82;5.60;;;36.90;28.90;;;;;;5119651;28;20230;-76
2023/07/11 12:07:33;;;;;;;10.07;5.43;;;36.90;26.20;;;;;;5117892;28;20702;-75
2023/07/11 12:10:20;;;;;;;9.38;6.20;;;36.50;26.00;;;;;;5115140;28;20301;-76
2023/07/11 12:13:15;;;;;;;8.52;5.60;;;36.80;27.30;;;;;;5099940;28;20210;-76
2023/07/11 12:15:48;;;;;;;9.02;5.75;;;37.20;27.40;;;;;;5098134;28;20207;-76
2023/07/11 12:18:40;;;;;;;9.60;5.63;;;36.80;27.00;;;;;;5099646;28;20546;-76
2023/07/11 12:21:31;;;;;;;11.70;6.05;;;36.70;28.00;;;;;;5124852;28;20213;-75
2023/07/11 12:24:41;;;;;;;7.63;5.50;;;36.60;28.10;;;;;;5108225;28;20210;-76
2023/07/11 12:27:46;;;;;;;9.68;6.10;;;37.00;27.20;;;;;;5114221;28;20222;-76
2023/07/11 12:30:41;;;;;;;9.98;5.75;;;36.60;27.20;;;;;;5114621;28;20220;-76
2023/07/11 12:33:32;;;;;;;8.82;5.90;;;36.70;28.80;;;;;;5114339;28;20271;-76
2023/07/11 12:36:30;;;;;;;9.30;5.97;;;36.60;28.00;;;;;;5105520;28;20209;-76
2023/07/11 12:39:09;;;;;;;7.88;5.57;;;36.70;28.40;;;;;;5094564;28;20254;-75
2023/07/11 12:41:44;;;;;;;7.07;5.90;;;36.90;27.80;;;;;;5099650;28;20187;-76
2023/07/11 12:44:15;;;;;;;10.73;5.88;;;36.90;27.60;;;;;;5099515;28;20203;-77
2023/07/11 12:46:46;;;;;;;14.30;5.60;;;36.90;27.40;;;;;;5098141;28;20218;-76
2023/07/11 12:49:26;;;;;;;7.65;5.88;;;36.80;27.00;;;;;;5108888;28;20213;-77
2023/07/11 12:52:05;;;;;;;6.93;5.72;;;37.00;28.80;;;;;;5114020;28;20205;-76
2023/07/11 12:54:33;;;;;;;10.15;5.75;;;37.10;28.70;;;;;;5098785;28;20293;-75
2023/07/11 12:57:07;;;;;;;7.25;5.90;;;37.20;26.70;;;;;;5093408;28;20223;-77
2023/07/11 12:59:36;;;;;;;8.52;5.53;;;36.80;29.50;;;;;;5093014;28;20615;-76
2023/07/11 13:02:07;;;;;;;9.38;5.32;;;36.90;28.10;;;;;;5091889;28;20672;-77
2023/07/11 13:04:37;;;;;;;7.57;5.40;;;36.50;26.60;;;;;;5092898;28;20298;-75
2023/07/11 13:07:10;;;;;;;8.52;5.38;;;36.50;27.30;;;;;;5093461;28;20288;-75
2023/07/11 13:09:44;;;;;;;7.38;5.40;;;36.70;28.40;;;;;;5093415;28;20222;-76
2023/07/11 13:12:24;;;;;;;6.45;5.22;;;36.80;26.60;;;;;;5092315;28;20652;-77